Wanhe — 3FJH7 — position and weather

sailwx.info

Track history (hours):
 
Tides and Currents Weather Stations Pressure Air Temp Water Temp Dewpoint Dewpoint Depression Visibility Wind Speed Wind Dir Waves Ship Positions

Wanhe

Last reported at 2014-Aug-31 10:33 UTC. Time now 2014-Sep-02 02:14 UTC.
Position N 30°34' E 122°51'.

Length 280 m; draft 13.8 m.

Type: Ship (hazmat cat A). MMSI: 351217000.

Date/timePositionNaut miles runAvg speedWind from/ knotsBaromVisibWave heightAir tempDewpointWater temp
2014-Aug-31 10:33N 30°34' E 122°51'1919.4
2014-Aug-31 09:33N 30°32' E 122°28'1514.7
2014-Aug-31 08:33N 30°34' E 122°11'5 0.3
2014-Aug-30 18:33N 30°36' E 122°06'10 9.8
2014-Aug-30 17:33N 30°33' E 122°17'1110.6
2014-Aug-30 16:33N 30°32' E 122°30'1413.6
2014-Aug-30 15:33N 30°28' E 122°45'5 2.3
2014-Aug-30 13:16N 30°23' E 122°47'0 0.0
2014-Aug-30 12:28N 30°23' E 122°47'0 0.1
2014-Aug-30 11:28N 30°23' E 122°47'0 0.1
2014-Aug-30 10:28N 30°23' E 122°47'0 0.0
2014-Aug-30 09:22N 30°23' E 122°47'0 0.0
2014-Aug-30 08:28N 30°23' E 122°47'0 0.0
2014-Aug-30 07:28N 30°23' E 122°47'0 0.0
2014-Aug-30 06:22N 30°23' E 122°47'0 0.2
2014-Aug-30 05:28N 30°23' E 122°47'7 7.6
2014-Aug-30 04:32N 30°16' E 122°48'1713.6
2014-Aug-30 03:17N 29°59' E 122°46'1014.0
2014-Aug-30 02:33N 29°50' E 122°41'1313.3
2014-Aug-30 01:33N 29°41' E 122°30'1312.7
2014-Aug-30 00:33N 29°46' E 122°17'1212.0
2014-Aug-29 23:33N 29°55' E 122°07'5 4.6
2014-Aug-29 22:28N 29°54' E 122°02'0 0.0
2014-Aug-29 21:28N 29°54' E 122°02'0 0.0
2014-Aug-29 20:28N 29°54' E 122°02'0 0.0
2014-Aug-29 19:28N 29°54' E 122°02'0 0.1
2014-Aug-29 18:28N 29°54' E 122°02'0 0.1
2014-Aug-29 17:29N 29°54' E 122°02'0 0.0
2014-Aug-29 16:28N 29°54' E 122°02'0 0.0
2014-Aug-29 15:28N 29°54' E 122°02'0 0.0
2014-Aug-29 14:29N 29°54' E 122°02'0 0.0
2014-Aug-29 13:28N 29°54' E 122°02'0 0.0
2014-Aug-29 12:28N 29°54' E 122°02'0 0.0
2014-Aug-29 11:22N 29°54' E 122°02'0 0.1
2014-Aug-29 10:28N 29°54' E 122°02'0 0.0
2014-Aug-29 09:28N 29°54' E 122°02'0 0.0
2014-Aug-29 08:28N 29°54' E 122°02'0 0.0
2014-Aug-29 07:28N 29°54' E 122°02'0 0.0
2014-Aug-29 06:28N 29°54' E 122°02'0 0.0
2014-Aug-29 05:23N 29°54' E 122°02'0 0.0
2014-Aug-29 04:28N 29°54' E 122°02'0 0.0
2014-Aug-29 03:28N 29°54' E 122°02'0 0.0
2014-Aug-29 02:32N 29°54' E 122°02'5 5.7
2014-Aug-29 01:34N 29°56' E 122°08'1212.2
2014-Aug-29 00:33N 29°46' E 122°17'9 8.9
2014-Aug-28 23:34N 29°41' E 122°26'1211.7
2014-Aug-28 22:33N 29°31' E 122°31'1313.2
2014-Aug-28 21:34N 29°18' E 122°33'29916.6
2014-Aug-28 03:33N 24°56' E 119°52'1919.3
2014-Aug-28 02:33N 24°44' E 119°36'2320.0
2014-Aug-28 01:26N 24°30' E 119°16'1920.0
2014-Aug-28 00:30N 24°20' E 118°59'1920.1
2014-Aug-27 23:32N 24°09' E 118°41'2020.1
2014-Aug-27 22:33N 23°56' E 118°24'2019.8
2014-Aug-27 21:33N 23°44' E 118°07'7919.3
2014-Aug-27 17:27N 22°56' E 116°59'16316.4
2014-Aug-27 07:33N 22°20' E 114°07'1 0.1
2014-Aug-27 02:28N 22°20' E 114°08'4 0.6
2014-Aug-26 20:25N 22°20' E 114°04'0 0.0
2014-Aug-26 13:13N 22°20' E 114°04'0 0.0
2014-Aug-26 07:25N 22°20' E 114°04'0 0.1
2014-Aug-26 05:31N 22°20' E 114°04'0 0.1
2014-Aug-26 03:29N 22°20' E 114°04'17 0.7
2014-Aug-25 02:22N 22°34' E 114°16'1 0.7
2014-Aug-25 01:31N 22°34' E 114°15'0 0.0
2014-Aug-25 00:31N 22°34' E 114°15'0 0.0
2014-Aug-24 23:31N 22°34' E 114°15'0 0.0
2014-Aug-24 22:31N 22°34' E 114°15'0 0.0
2014-Aug-24 21:31N 22°34' E 114°15'0 0.0
2014-Aug-24 20:31N 22°34' E 114°15'0 0.0
2014-Aug-24 19:31N 22°34' E 114°15'0 0.0
2014-Aug-24 18:31N 22°34' E 114°15'0 0.0
2014-Aug-24 17:31N 22°34' E 114°15'0 0.0
2014-Aug-24 16:31N 22°34' E 114°15'0 0.0
2014-Aug-24 15:32N 22°34' E 114°15'0 0.0
2014-Aug-24 14:31N 22°34' E 114°15'0 0.0
2014-Aug-24 13:31N 22°34' E 114°15'0 0.0
2014-Aug-24 12:31N 22°34' E 114°15'0 0.0
2014-Aug-24 11:32N 22°34' E 114°15'0 0.0
2014-Aug-24 10:25N 22°34' E 114°15'0 0.0
2014-Aug-24 09:31N 22°34' E 114°15'0 0.0
2014-Aug-24 08:31N 22°34' E 114°15'0 0.0
2014-Aug-24 07:31N 22°34' E 114°15'0 0.0
2014-Aug-24 06:31N 22°34' E 114°15'0 0.0
2014-Aug-24 05:31N 22°34' E 114°15'0 0.1
2014-Aug-24 04:33N 22°34' E 114°16'11412.2
2014-Aug-23 19:10N 22°15' E 116°17'22514.0
2014-Aug-23 03:07N 22°33' E 120°20'0 0.0
2014-Aug-22 16:31N 22°33' E 120°20'0 0.0
2014-Aug-22 15:07N 22°33' E 120°20'0 0.6
2014-Aug-22 14:33N 22°33' E 120°20'6 6.4
2014-Aug-22 13:33N 22°32' E 120°13'9 9.0
2014-Aug-22 12:33N 22°39' E 120°07'1212.3
2014-Aug-22 11:33N 22°49' E 120°00'1212.0
2014-Aug-22 10:33N 23°00' E 119°54'1110.8
2014-Aug-22 09:33N 23°11' E 119°52'1110.1
2014-Aug-22 08:29N 23°21' E 119°52'1011.0
2014-Aug-22 07:33N 23°31' E 119°55'1312.5
2014-Aug-22 06:31N 23°44' E 119°58'1713.9
2014-Aug-22 05:16N 24°01' E 120°01'1413.3
2014-Aug-22 04:14N 24°14' E 120°07'913.0
2014-Aug-22 03:32N 24°21' E 120°13'3912.9
2014-Aug-22 00:32N 24°54' E 120°36'  
Track history (hours):
 
Tides and Currents Weather Stations Pressure Air Temp Water Temp Dewpoint Dewpoint Depression Visibility Wind Speed Wind Dir Waves Ship Positions

Wanhe

Last reported at 2014-Aug-31 10:33 UTC. Time now 2014-Sep-02 02:14 UTC.
Position N 30°34' E 122°51'.

Length 280 m; draft 13.8 m.

Type: Ship (hazmat cat A). MMSI: 351217000.

Date/timePositionNaut miles runAvg speedWind from/ knotsBaromVisibWave heightAir tempDewpointWater temp
2014-Aug-31 10:33N 30°34' E 122°51'1919.4
2014-Aug-31 09:33N 30°32' E 122°28'1514.7
2014-Aug-31 08:33N 30°34' E 122°11'5 0.3
2014-Aug-30 18:33N 30°36' E 122°06'10 9.8
2014-Aug-30 17:33N 30°33' E 122°17'1110.6
2014-Aug-30 16:33N 30°32' E 122°30'1413.6
2014-Aug-30 15:33N 30°28' E 122°45'5 2.3
2014-Aug-30 13:16N 30°23' E 122°47'0 0.0
2014-Aug-30 12:28N 30°23' E 122°47'0 0.1
2014-Aug-30 11:28N 30°23' E 122°47'0 0.1
2014-Aug-30 10:28N 30°23' E 122°47'0 0.0
2014-Aug-30 09:22N 30°23' E 122°47'0 0.0
2014-Aug-30 08:28N 30°23' E 122°47'0 0.0
2014-Aug-30 07:28N 30°23' E 122°47'0 0.0
2014-Aug-30 06:22N 30°23' E 122°47'0 0.2
2014-Aug-30 05:28N 30°23' E 122°47'7 7.6
2014-Aug-30 04:32N 30°16' E 122°48'1713.6
2014-Aug-30 03:17N 29°59' E 122°46'1014.0
2014-Aug-30 02:33N 29°50' E 122°41'1313.3
2014-Aug-30 01:33N 29°41' E 122°30'1312.7
2014-Aug-30 00:33N 29°46' E 122°17'1212.0
2014-Aug-29 23:33N 29°55' E 122°07'5 4.6
2014-Aug-29 22:28N 29°54' E 122°02'0 0.0
2014-Aug-29 21:28N 29°54' E 122°02'0 0.0
2014-Aug-29 20:28N 29°54' E 122°02'0 0.0
2014-Aug-29 19:28N 29°54' E 122°02'0 0.1
2014-Aug-29 18:28N 29°54' E 122°02'0 0.1
2014-Aug-29 17:29N 29°54' E 122°02'0 0.0
2014-Aug-29 16:28N 29°54' E 122°02'0 0.0
2014-Aug-29 15:28N 29°54' E 122°02'0 0.0
2014-Aug-29 14:29N 29°54' E 122°02'0 0.0
2014-Aug-29 13:28N 29°54' E 122°02'0 0.0
2014-Aug-29 12:28N 29°54' E 122°02'0 0.0
2014-Aug-29 11:22N 29°54' E 122°02'0 0.1
2014-Aug-29 10:28N 29°54' E 122°02'0 0.0
2014-Aug-29 09:28N 29°54' E 122°02'0 0.0
2014-Aug-29 08:28N 29°54' E 122°02'0 0.0
2014-Aug-29 07:28N 29°54' E 122°02'0 0.0
2014-Aug-29 06:28N 29°54' E 122°02'0 0.0
2014-Aug-29 05:23N 29°54' E 122°02'0 0.0
2014-Aug-29 04:28N 29°54' E 122°02'0 0.0
2014-Aug-29 03:28N 29°54' E 122°02'0 0.0
2014-Aug-29 02:32N 29°54' E 122°02'5 5.7
2014-Aug-29 01:34N 29°56' E 122°08'1212.2
2014-Aug-29 00:33N 29°46' E 122°17'9 8.9
2014-Aug-28 23:34N 29°41' E 122°26'1211.7
2014-Aug-28 22:33N 29°31' E 122°31'1313.2
2014-Aug-28 21:34N 29°18' E 122°33'29916.6
2014-Aug-28 03:33N 24°56' E 119°52'1919.3
2014-Aug-28 02:33N 24°44' E 119°36'2320.0
2014-Aug-28 01:26N 24°30' E 119°16'1920.0
2014-Aug-28 00:30N 24°20' E 118°59'1920.1
2014-Aug-27 23:32N 24°09' E 118°41'2020.1
2014-Aug-27 22:33N 23°56' E 118°24'2019.8
2014-Aug-27 21:33N 23°44' E 118°07'7919.3
2014-Aug-27 17:27N 22°56' E 116°59'16316.4
2014-Aug-27 07:33N 22°20' E 114°07'1 0.1
2014-Aug-27 02:28N 22°20' E 114°08'4 0.6
2014-Aug-26 20:25N 22°20' E 114°04'0 0.0
2014-Aug-26 13:13N 22°20' E 114°04'0 0.0
2014-Aug-26 07:25N 22°20' E 114°04'0 0.1
2014-Aug-26 05:31N 22°20' E 114°04'0 0.1
2014-Aug-26 03:29N 22°20' E 114°04'17 0.7
2014-Aug-25 02:22N 22°34' E 114°16'1 0.7
2014-Aug-25 01:31N 22°34' E 114°15'0 0.0
2014-Aug-25 00:31N 22°34' E 114°15'0 0.0
2014-Aug-24 23:31N 22°34' E 114°15'0 0.0
2014-Aug-24 22:31N 22°34' E 114°15'0 0.0
2014-Aug-24 21:31N 22°34' E 114°15'0 0.0
2014-Aug-24 20:31N 22°34' E 114°15'0 0.0
2014-Aug-24 19:31N 22°34' E 114°15'0 0.0
2014-Aug-24 18:31N 22°34' E 114°15'0 0.0
2014-Aug-24 17:31N 22°34' E 114°15'0 0.0
2014-Aug-24 16:31N 22°34' E 114°15'0 0.0
2014-Aug-24 15:32N 22°34' E 114°15'0 0.0
2014-Aug-24 14:31N 22°34' E 114°15'0 0.0
2014-Aug-24 13:31N 22°34' E 114°15'0 0.0
2014-Aug-24 12:31N 22°34' E 114°15'0 0.0
2014-Aug-24 11:32N 22°34' E 114°15'0 0.0
2014-Aug-24 10:25N 22°34' E 114°15'0 0.0
2014-Aug-24 09:31N 22°34' E 114°15'0 0.0
2014-Aug-24 08:31N 22°34' E 114°15'0 0.0
2014-Aug-24 07:31N 22°34' E 114°15'0 0.0
2014-Aug-24 06:31N 22°34' E 114°15'0 0.0
2014-Aug-24 05:31N 22°34' E 114°15'0 0.1
2014-Aug-24 04:33N 22°34' E 114°16'11412.2
2014-Aug-23 19:10N 22°15' E 116°17'22514.0
2014-Aug-23 03:07N 22°33' E 120°20'0 0.0
2014-Aug-22 16:31N 22°33' E 120°20'0 0.0
2014-Aug-22 15:07N 22°33' E 120°20'0 0.6
2014-Aug-22 14:33N 22°33' E 120°20'6 6.4
2014-Aug-22 13:33N 22°32' E 120°13'9 9.0
2014-Aug-22 12:33N 22°39' E 120°07'1212.3
2014-Aug-22 11:33N 22°49' E 120°00'1212.0
2014-Aug-22 10:33N 23°00' E 119°54'1110.8
2014-Aug-22 09:33N 23°11' E 119°52'1110.1
2014-Aug-22 08:29N 23°21' E 119°52'1011.0
2014-Aug-22 07:33N 23°31' E 119°55'1312.5
2014-Aug-22 06:31N 23°44' E 119°58'1713.9
2014-Aug-22 05:16N 24°01' E 120°01'1413.3
2014-Aug-22 04:14N 24°14' E 120°07'913.0
2014-Aug-22 03:32N 24°21' E 120°13'3912.9
2014-Aug-22 00:32N 24°54' E 120°36'  

Dump ship's entire track history